Time;durP1;ratioP1;P1;durP2;ratioP2;P2;SDS_P1;SDS_P2;PMS_P1;PMS_P2;Temp;Humidity;BMP_temperature;BMP_pressure;BME280_temperature;BME280_humidity;BME280_pressure;Samples;Min_cycle;Max_cycle;Signal;HPM_P1;HPM_P2
2023/02/18 00:00:12;;;;;;;;;;;;;;;9.43;39.85;100394.25;5091774;28;19924;-36
2023/02/18 00:02:37;;;;;;;;;;;;;;;9.42;39.65;100390.72;5091759;28;19912;-36
2023/02/18 00:05:03;;;;;;;;;;;;;;;9.12;40.58;100388.03;5091811;28;19935;-36
2023/02/18 00:07:28;;;;;;;;;;;;;;;9.17;40.27;100390.13;5091720;28;19912;-36
2023/02/18 00:09:53;;;;;;;;;;;;;;;9.20;40.21;100392.44;5091638;28;20278;-36
2023/02/18 00:12:18;;;;;;;;;;;;;;;9.05;40.16;100392.38;5091658;28;19959;-36
2023/02/18 00:14:44;;;;;;;;;;;;;;;9.26;40.07;100389.06;5091338;28;20233;-36
2023/02/18 00:17:09;;;;;;;;;;;;;;;9.22;40.48;100389.59;5091441;28;19959;-36
2023/02/18 00:19:34;;;;;;;;;;;;;;;9.45;39.55;100381.59;5091188;28;19916;-37
2023/02/18 00:21:59;;;;;;;;;;;;;;;9.52;38.92;100379.84;5091006;28;20020;-37
2023/02/18 00:24:25;;;;;;;;;;;;;;;9.71;39.17;100375.84;5091074;28;19977;-37
2023/02/18 00:26:51;;;;;;;;;;;;;;;9.57;39.00;100378.31;5091200;28;20007;-37
2023/02/18 00:29:16;;;;;;;;;;;;;;;9.39;39.16;100369.88;5091290;28;19919;-37
2023/02/18 00:31:42;;;;;;;;;;;;;;;9.52;39.08;100372.72;5090300;28;19916;-36
2023/02/18 00:34:09;;;;;;;;;;;;;;;9.43;39.30;100372.97;5091338;28;19912;-36
2023/02/18 00:36:35;;;;;;;;;;;;;;;9.57;39.28;100372.16;5091091;28;20003;-36
2023/02/18 00:39:02;;;;;;;;;;;;;;;9.53;39.24;100365.56;5091078;28;20030;-36
2023/02/18 00:41:28;;;;;;;;;;;;;;;9.54;38.90;100364.56;5091167;28;19916;-37
2023/02/18 00:43:54;;;;;;;;;;;;;;;9.59;38.71;100352.41;5091163;28;19920;-36
2023/02/18 00:46:20;;;;;;;;;;;;;;;9.75;38.34;100351.38;5091236;28;19955;-36
2023/02/18 00:48:45;;;;;;;;;;;;;;;9.45;38.79;100347.88;5091268;28;20104;-36
2023/02/18 00:51:11;;;;;;;;;;;;;;;9.46;38.54;100338.06;5091250;28;20403;-36
2023/02/18 00:53:36;;;;;;;;;;;;;;;9.61;38.73;100336.25;5090836;28;20303;-36
2023/02/18 00:56:02;;;;;;;;;;;;;;;9.74;38.51;100341.75;5090765;28;19912;-36
2023/02/18 00:58:27;;;;;;;;;;;;;;;10.03;37.75;100341.91;5090872;28;20041;-36
2023/02/18 01:00:53;;;;;;;;;;;;;;;10.01;38.26;100325.34;5090751;28;19916;-37
2023/02/18 01:03:18;;;;;;;;;;;;;;;9.93;38.54;100320.94;5090758;28;19999;-36
2023/02/18 01:05:44;;;;;;;;;;;;;;;9.83;37.72;100323.06;5090550;28;19912;-37
2023/02/18 01:08:10;;;;;;;;;;;;;;;9.65;38.30;100312.78;5090769;28;19912;-37
2023/02/18 01:10:36;;;;;;;;;;;;;;;9.38;38.99;100317.72;5090806;28;19942;-36
2023/02/18 01:13:03;;;;;;;;;;;;;;;9.43;39.22;100314.53;5090588;28;19913;-36
2023/02/18 01:15:28;;;;;;;;;;;;;;;9.18;39.41;100312.94;5090711;28;20408;-36
2023/02/18 01:17:54;;;;;;;;;;;;;;;9.01;40.13;100306.13;5090642;28;19912;-36
2023/02/18 01:20:19;;;;;;;;;;;;;;;8.72;40.45;100309.50;5090697;28;20347;-37
2023/02/18 01:22:44;;;;;;;;;;;;;;;8.67;40.56;100303.91;5090335;28;19924;-36
2023/02/18 01:25:10;;;;;;;;;;;;;;;8.57;41.16;100296.22;5090490;28;19912;-36
2023/02/18 01:27:36;;;;;;;;;;;;;;;8.41;42.06;100305.94;5090694;28;19920;-36
2023/02/18 01:30:02;;;;;;;;;;;;;;;8.33;42.46;100290.00;5090601;28;20024;-36
2023/02/18 01:32:27;;;;;;;;;;;;;;;8.19;42.34;100294.25;5090585;28;20352;-36
2023/02/18 01:34:52;;;;;;;;;;;;;;;8.26;42.81;100286.41;5090302;28;19990;-37
2023/02/18 01:37:18;;;;;;;;;;;;;;;8.23;42.32;100286.78;5090394;28;19912;-41
2023/02/18 01:39:43;;;;;;;;;;;;;;;8.37;42.42;100282.53;5090417;28;19916;-41
2023/02/18 01:42:19;;;;;;;;;;;;;;;8.18;42.52;100281.97;5090959;28;20467;-42
2023/02/18 01:44:45;;;;;;;;;;;;;;;7.93;43.39;100277.81;5094680;28;19920;-42
2023/02/18 01:47:10;;;;;;;;;;;;;;;7.83;43.05;100273.53;5095018;28;19916;-42
2023/02/18 01:49:36;;;;;;;;;;;;;;;7.86;44.24;100280.31;5094955;28;19919;-42
2023/02/18 01:52:04;;;;;;;;;;;;;;;7.96;43.66;100278.28;5095002;28;20462;-41
2023/02/18 01:54:33;;;;;;;;;;;;;;;7.85;44.25;100278.69;5094735;28;19961;-41
2023/02/18 01:57:01;;;;;;;;;;;;;;;7.95;43.86;100281.13;5095018;28;19951;-41
2023/02/18 01:59:29;;;;;;;;;;;;;;;7.81;43.74;100278.19;5093630;28;20302;-41
2023/02/18 02:01:55;;;;;;;;;;;;;;;7.69;43.48;100278.75;5094697;28;19912;-42
2023/02/18 02:04:21;;;;;;;;;;;;;;;7.81;44.27;100272.06;5094823;28;19922;-42
2023/02/18 02:06:46;;;;;;;;;;;;;;;7.78;44.12;100269.75;5094434;28;19951;-41
2023/02/18 02:09:13;;;;;;;;;;;;;;;7.82;43.91;100271.06;5094640;28;20370;-41
2023/02/18 02:11:54;;;;;;;;;;;;;;;7.83;43.66;100270.09;5094724;28;20380;-42
2023/02/18 02:14:25;;;;;;;;;;;;;;;7.75;43.95;100268.28;5094544;28;19912;-42
2023/02/18 02:17:02;;;;;;;;;;;;;;;7.65;44.14;100278.25;5094405;28;19916;-43
2023/02/18 02:19:37;;;;;;;;;;;;;;;7.79;44.22;100277.53;5094380;28;20364;-43
2023/02/18 02:22:08;;;;;;;;;;;;;;;7.90;44.08;100288.75;5094069;28;19912;-42
2023/02/18 02:24:39;;;;;;;;;;;;;;;7.93;43.76;100291.88;5093930;28;20387;-42
2023/02/18 02:27:04;;;;;;;;;;;;;;;7.76;44.56;100287.66;5094251;28;19912;-42
2023/02/18 02:29:33;;;;;;;;;;;;;;;7.56;44.70;100285.41;5094359;28;19950;-42
2023/02/18 02:32:25;;;;;;;;;;;;;;;7.34;44.36;100291.44;5094227;28;19947;-42
2023/02/18 02:34:50;;;;;;;;;;;;;;;7.56;44.66;100290.72;5092673;28;20319;-42
2023/02/18 02:37:24;;;;;;;;;;;;;;;7.55;43.55;100278.44;5094099;28;19937;-42
2023/02/18 02:39:56;;;;;;;;;;;;;;;7.42;44.10;100286.09;5094133;28;19966;-42
2023/02/18 02:42:40;;;;;;;;;;;;;;;7.53;43.77;100293.69;5094142;28;19920;-42
2023/02/18 02:45:05;;;;;;;;;;;;;;;7.53;44.60;100298.16;5093482;28;20376;-42
2023/02/18 02:47:46;;;;;;;;;;;;;;;7.80;43.55;100286.31;5093866;28;19912;-42
2023/02/18 02:50:26;;;;;;;;;;;;;;;7.87;43.89;100299.72;5094249;28;19916;-42
2023/02/18 02:52:53;;;;;;;;;;;;;;;7.80;44.10;100296.91;5093708;28;20021;-42
2023/02/18 02:55:19;;;;;;;;;;;;;;;7.70;44.17;100293.66;5093095;28;19916;-42
2023/02/18 02:57:49;;;;;;;;;;;;;;;7.67;44.41;100297.44;5093491;28;20004;-42
2023/02/18 03:00:16;;;;;;;;;;;;;;;7.90;43.38;100296.69;5093658;28;20659;-42
2023/02/18 03:02:44;;;;;;;;;;;;;;;7.78;44.23;100288.31;5093853;28;19916;-42
2023/02/18 03:05:09;;;;;;;;;;;;;;;7.75;43.71;100288.63;5093446;28;20440;-42
2023/02/18 03:07:46;;;;;;;;;;;;;;;7.50;44.49;100295.84;5093828;28;19998;-42
2023/02/18 03:10:14;;;;;;;;;;;;;;;7.67;43.82;100284.19;5093749;28;19916;-42
2023/02/18 03:12:46;;;;;;;;;;;;;;;7.93;43.46;100280.47;5093437;28;19912;-42
2023/02/18 03:15:20;;;;;;;;;;;;;;;7.91;43.11;100277.16;5093347;28;19916;-41
2023/02/18 03:17:55;;;;;;;;;;;;;;;8.09;42.40;100274.25;5093446;28;20330;-42
2023/02/18 03:20:31;;;;;;;;;;;;;;;7.99;42.34;100272.63;5093521;28;19924;-42
2023/02/18 03:22:58;;;;;;;;;;;;;;;7.93;42.43;100267.22;5093083;28;19920;-43
2023/02/18 03:25:24;;;;;;;;;;;;;;;8.09;41.60;100263.63;5093004;28;19912;-41
2023/02/18 03:27:52;;;;;;;;;;;;;;;8.30;42.01;100253.25;5093310;28;19969;-41
2023/02/18 03:30:23;;;;;;;;;;;;;;;7.95;42.00;100252.78;5093061;28;19934;-42
2023/02/18 03:32:50;;;;;;;;;;;;;;;8.19;41.40;100257.13;5093228;28;19912;-42
2023/02/18 03:35:17;;;;;;;;;;;;;;;8.43;41.38;100255.31;5092436;28;19962;-41
2023/02/18 03:37:46;;;;;;;;;;;;;;;8.56;40.78;100257.41;5092974;28;20391;-42
2023/02/18 03:40:12;;;;;;;;;;;;;;;8.61;40.23;100261.16;5092758;28;20004;-42
2023/02/18 03:42:37;;;;;;;;;;;;;;;8.61;40.05;100263.81;5092934;28;19977;-42
2023/02/18 03:45:03;;;;;;;;;;;;;;;8.79;39.97;100262.69;5092197;28;19931;-43
2023/02/18 03:47:28;;;;;;;;;;;;;;;8.83;39.84;100271.13;5093008;28;19912;-42
2023/02/18 03:49:53;;;;;;;;;;;;;;;8.76;39.56;100269.19;5092631;28;19962;-42
2023/02/18 03:52:19;;;;;;;;;;;;;;;8.69;39.92;100275.38;5086580;28;20351;-42
2023/02/18 03:54:44;;;;;;;;;;;;;;;8.59;39.83;100281.75;5084952;28;19917;-42
2023/02/18 03:57:09;;;;;;;;;;;;;;;8.67;39.76;100280.84;5084853;28;19973;-43
2023/02/18 03:59:34;;;;;;;;;;;;;;;8.97;39.26;100292.38;5082575;28;20312;-42
2023/02/18 04:02:00;;;;;;;;;;;;;;;8.88;38.75;100292.66;5089221;28;19919;-42
2023/02/18 04:04:25;;;;;;;;;;;;;;;8.94;39.29;100290.09;5092498;28;19957;-42
2023/02/18 04:06:50;;;;;;;;;;;;;;;9.37;38.15;100292.19;5092305;28;19931;-42
2023/02/18 04:09:16;;;;;;;;;;;;;;;9.39;38.56;100295.47;5092394;28;19912;-42
2023/02/18 04:11:41;;;;;;;;;;;;;;;9.17;38.55;100291.88;5092341;28;19919;-42
2023/02/18 04:14:07;;;;;;;;;;;;;;;8.95;38.93;100288.28;5092449;28;19939;-42
2023/02/18 04:16:32;;;;;;;;;;;;;;;9.03;38.88;100305.97;5091958;28;19995;-42
2023/02/18 04:18:57;;;;;;;;;;;;;;;8.96;38.61;100293.38;5082510;28;19954;-42
2023/02/18 04:21:23;;;;;;;;;;;;;;;9.02;38.70;100299.00;5081045;28;19923;-41
2023/02/18 04:23:48;;;;;;;;;;;;;;;9.06;38.44;100301.09;5081584;28;19920;-42
2023/02/18 04:26:13;;;;;;;;;;;;;;;9.13;38.33;100306.53;5080561;28;19923;-41
2023/02/18 04:28:38;;;;;;;;;;;;;;;8.67;38.45;100246.38;5080796;28;19931;-41
2023/02/18 04:31:04;;;;;;;;;;;;;;;8.96;39.04;100300.53;5073972;28;19916;-42
2023/02/18 04:33:29;;;;;;;;;;;;;;;8.89;38.47;100300.44;5071897;28;19913;-42
2023/02/18 04:35:54;;;;;;;;;;;;;;;9.17;38.23;100307.81;5077155;28;19939;-42
2023/02/18 04:38:20;;;;;;;;;;;;;;;9.27;38.49;100299.56;5074354;28;19921;-42
2023/02/18 04:40:45;;;;;;;;;;;;;;;9.44;37.05;100306.38;5071577;28;19922;-41
2023/02/18 04:43:11;;;;;;;;;;;;;;;9.51;37.14;100314.44;5073315;28;19999;-42
2023/02/18 04:45:36;;;;;;;;;;;;;;;9.65;36.61;100305.63;5077081;28;19944;-42
2023/02/18 04:48:01;;;;;;;;;;;;;;;9.65;36.53;100302.97;5079720;28;19913;-41
2023/02/18 04:50:27;;;;;;;;;;;;;;;9.88;36.51;100296.75;5071721;28;19913;-42
2023/02/18 04:52:52;;;;;;;;;;;;;;;9.82;36.13;100285.00;5071279;28;19923;-41
2023/02/18 04:55:17;;;;;;;;;;;;;;;9.84;36.24;100293.63;5071113;28;19969;-43
2023/02/18 04:57:42;;;;;;;;;;;;;;;9.87;36.53;100287.94;5071186;28;19912;-42
2023/02/18 05:00:10;;;;;;;;;;;;;;;9.83;36.36;100289.34;5071171;28;19917;-42
2023/02/18 05:02:35;;;;;;;;;;;;;;;9.77;36.70;100303.38;5071637;28;19952;-42
2023/02/18 05:05:00;;;;;;;;;;;;;;;9.81;37.05;100306.47;5071486;28;19951;-42
2023/02/18 05:07:26;;;;;;;;;;;;;;;9.74;37.31;100309.03;5071270;28;20023;-42
2023/02/18 05:09:51;;;;;;;;;;;;;;;9.77;37.55;100306.84;5071557;28;19919;-42
2023/02/18 05:12:16;;;;;;;;;;;;;;;9.54;36.92;100301.63;5076819;28;19924;-42
2023/02/18 05:14:41;;;;;;;;;;;;;;;9.38;37.44;100299.94;5079927;28;19913;-42
2023/02/18 05:17:07;;;;;;;;;;;;;;;9.48;37.13;100304.16;5081485;28;19918;-42
2023/02/18 05:19:32;;;;;;;;;;;;;;;9.47;37.32;100299.88;5085325;28;19917;-42
2023/02/18 05:21:57;;;;;;;;;;;;;;;9.58;37.31;100299.44;5083765;28;19970;-42
2023/02/18 05:24:23;;;;;;;;;;;;;;;9.58;36.86;100300.25;5092185;28;19951;-42
2023/02/18 05:26:48;;;;;;;;;;;;;;;9.73;36.48;100297.59;5095380;28;19919;-42
2023/02/18 05:29:13;;;;;;;;;;;;;;;9.77;36.31;100296.22;5095314;28;19935;-42
2023/02/18 05:31:39;;;;;;;;;;;;;;;9.82;36.63;100294.81;5097620;28;19919;-42
2023/02/18 05:34:04;;;;;;;;;;;;;;;10.13;36.30;100290.09;5096383;28;20286;-42
2023/02/18 05:36:29;;;;;;;;;;;;;;;10.11;36.40;100292.13;5115184;28;19919;-42
2023/02/18 05:38:54;;;;;;;;;;;;;;;9.93;36.43;100287.19;5095188;28;20310;-42
2023/02/18 05:41:20;;;;;;;;;;;;;;;10.07;36.13;100293.53;5095267;28;19960;-42
2023/02/18 05:46:29;;;;;;;;;;;;;;;10.40;35.30;100293.09;5095477;28;19945;-42
2023/02/18 05:48:54;;;;;;;;;;;;;;;10.34;35.32;100291.19;5094494;28;19916;-42
2023/02/18 05:51:19;;;;;;;;;;;;;;;10.43;35.47;100297.19;5094343;28;20002;-43
2023/02/18 05:53:45;;;;;;;;;;;;;;;10.69;34.76;100304.63;5094050;28;20291;-42
2023/02/18 05:56:10;;;;;;;;;;;;;;;11.10;34.92;100301.28;5094243;28;19964;-42
2023/02/18 05:58:35;;;;;;;;;;;;;;;11.13;34.82;100295.56;5101689;28;20367;-42
2023/02/18 06:01:00;;;;;;;;;;;;;;;10.88;34.71;100295.16;5114763;28;19916;-44
2023/02/18 06:03:26;;;;;;;;;;;;;;;10.94;34.12;100297.88;5114766;28;20053;-41
2023/02/18 06:05:51;;;;;;;;;;;;;;;10.88;34.13;100295.16;5111537;28;20358;-42
2023/02/18 06:08:19;;;;;;;;;;;;;;;10.62;34.74;100293.09;5104621;28;19916;-41
2023/02/18 06:10:44;;;;;;;;;;;;;;;11.08;33.76;100300.66;5087260;28;20372;-41
2023/02/18 06:13:09;;;;;;;;;;;;;;;11.07;33.41;100296.34;5075728;28;19966;-42
2023/02/18 06:15:35;;;;;;;;;;;;;;;11.17;33.56;100301.34;5082446;28;20012;-42
2023/02/18 06:18:00;;;;;;;;;;;;;;;11.11;33.46;100297.59;5084352;28;20268;-43
2023/02/18 06:20:25;;;;;;;;;;;;;;;11.23;33.86;100297.88;5082697;28;19960;-43
2023/02/18 06:22:50;;;;;;;;;;;;;;;11.38;33.25;100295.94;5093460;28;20279;-42
2023/02/18 06:25:16;;;;;;;;;;;;;;;11.27;33.83;100300.00;5087215;28;19994;-42
2023/02/18 06:27:41;;;;;;;;;;;;;;;11.06;33.76;100298.19;5086359;28;20058;-44
2023/02/18 06:30:07;;;;;;;;;;;;;;;11.29;33.51;100294.44;5073759;28;20291;-42
2023/02/18 06:32:32;;;;;;;;;;;;;;;11.18;33.69;100290.50;5073220;28;20406;-42
2023/02/18 06:34:57;;;;;;;;;;;;;;;11.55;33.37;100302.59;5072812;28;20403;-42
2023/02/18 06:37:23;;;;;;;;;;;;;;;11.38;33.54;100298.59;5072729;28;19942;-42
2023/02/18 06:39:48;;;;;;;;;;;;;;;11.67;32.66;100299.38;5072818;28;19916;-43
2023/02/18 06:42:13;;;;;;;;;;;;;;;11.87;32.23;100296.84;5072842;28;19935;-43
2023/02/18 06:44:39;;;;;;;;;;;;;;;11.75;32.56;100293.91;5072853;28;20075;-41
2023/02/18 06:47:04;;;;;;;;;;;;;;;11.64;32.67;100295.28;5072541;28;19936;-42
2023/02/18 06:49:29;;;;;;;;;;;;;;;12.02;32.51;100278.88;5072592;28;20054;-41
2023/02/18 06:51:54;;;;;;;;;;;;;;;11.77;32.81;100262.53;5072842;28;20005;-43
2023/02/18 06:54:20;;;;;;;;;;;;;;;12.33;32.07;100265.00;5072732;28;19912;-42
2023/02/18 06:56:45;;;;;;;;;;;;;;;12.65;31.78;100262.59;5072318;28;20414;-42
2023/02/18 06:59:10;;;;;;;;;;;;;;;12.84;31.55;100252.94;5072477;28;19923;-43
2023/02/18 07:01:36;;;;;;;;;;;;;;;13.26;30.44;100248.16;5072501;28;19912;-43
2023/02/18 07:04:01;;;;;;;;;;;;;;;13.25;30.53;100249.22;5072542;28;20436;-43
2023/02/18 07:06:26;;;;;;;;;;;;;;;13.23;30.48;100245.91;5072404;28;19923;-43
2023/02/18 07:08:51;;;;;;;;;;;;;;;13.42;30.24;100252.28;5072244;28;19913;-42
2023/02/18 07:11:17;;;;;;;;;;;;;;;13.59;30.37;100262.50;5072237;28;19985;-43
2023/02/18 07:13:42;;;;;;;;;;;;;;;13.89;29.99;100254.78;5072284;28;19916;-43
2023/02/18 07:16:07;;;;;;;;;;;;;;;13.58;30.44;100274.25;5072148;28;19989;-42
2023/02/18 07:18:32;;;;;;;;;;;;;;;13.41;30.66;100265.84;5072054;28;19999;-42
2023/02/18 07:20:58;;;;;;;;;;;;;;;13.68;30.16;100251.34;5072284;28;19955;-41
2023/02/18 07:23:23;;;;;;;;;;;;;;;14.08;29.87;100253.03;5070883;28;20393;-42
2023/02/18 07:25:48;;;;;;;;;;;;;;;14.04;30.04;100249.16;5070277;28;20007;-43
2023/02/18 07:28:14;;;;;;;;;;;;;;;14.05;29.62;100261.50;5070751;28;19954;-42
2023/02/18 07:30:39;;;;;;;;;;;;;;;14.28;29.59;100260.97;5071557;28;19912;-42
2023/02/18 07:33:05;;;;;;;;;;;;;;;14.40;29.29;100258.44;5070606;28;19916;-43
2023/02/18 07:35:30;;;;;;;;;;;;;;;14.40;29.09;100248.53;5071454;28;19927;-42
2023/02/18 07:37:56;;;;;;;;;;;;;;;14.26;29.57;100229.06;5071644;28;19920;-43
2023/02/18 07:40:22;;;;;;;;;;;;;;;14.34;29.73;100219.13;5071147;28;19943;-44
2023/02/18 07:42:47;;;;;;;;;;;;;;;14.61;29.31;100225.97;5070767;28;20333;-42
2023/02/18 07:45:13;;;;;;;;;;;;;;;14.69;28.98;100229.41;5070632;28;19916;-41
2023/02/18 07:47:38;;;;;;;;;;;;;;;14.34;28.98;100235.19;5070604;28;20272;-41
2023/02/18 07:50:04;;;;;;;;;;;;;;;14.76;30.48;100224.81;5069697;28;20398;-42
2023/02/18 07:52:30;;;;;;;;;;;;;;;14.59;29.62;100225.34;5069749;28;19970;-43
2023/02/18 07:54:55;;;;;;;;;;;;;;;14.38;29.70;100223.03;5069475;28;19913;-42
2023/02/18 07:57:20;;;;;;;;;;;;;;;14.74;28.96;100222.34;5069692;28;20423;-42
2023/02/18 07:59:45;;;;;;;;;;;;;;;14.72;29.35;100227.13;5070100;28;19916;-43
2023/02/18 08:02:16;;;;;;;;;;;;;;;15.01;29.08;100222.13;5070874;28;19920;-41
2023/02/18 08:04:42;;;;;;;;;;;;;;;15.36;28.49;100214.31;5070344;28;19916;-42
2023/02/18 08:07:11;;;;;;;;;;;;;;;15.81;28.47;100215.88;5070664;28;20292;-42
2023/02/18 08:09:36;;;;;;;;;;;;;;;16.25;27.31;100210.31;5070887;28;19918;-44
2023/02/18 08:12:01;;;;;;;;;;;;;;;16.00;28.34;100205.94;5071097;28;20307;-42
2023/02/18 08:14:26;;;;;;;;;;;;;;;17.03;29.65;100217.34;5071025;28;19912;-42
2023/02/18 08:16:52;;;;;;;;;;;;;;;17.58;26.43;100218.78;5071194;28;19912;-43
2023/02/18 08:19:17;;;;;;;;;;;;;;;17.51;26.38;100208.13;5070610;28;20376;-43
2023/02/18 08:21:42;;;;;;;;;;;;;;;17.54;26.24;100206.88;5069913;28;19912;-42
2023/02/18 08:24:08;;;;;;;;;;;;;;;17.68;26.28;100199.31;5069082;28;19924;-41
2023/02/18 08:26:33;;;;;;;;;;;;;;;17.69;25.77;100200.97;5069744;28;20251;-42
2023/02/18 08:28:58;;;;;;;;;;;;;;;17.72;25.64;100197.78;5069702;28;19936;-42
2023/02/18 08:31:25;;;;;;;;;;;;;;;17.58;27.82;100203.44;5069421;28;20011;-41
2023/02/18 08:33:52;;;;;;;;;;;;;;;17.61;25.92;100195.94;5068475;28;19912;-41
2023/02/18 08:36:17;;;;;;;;;;;;;;;17.51;26.73;100197.38;5068352;28;19931;-40
2023/02/18 08:38:43;;;;;;;;;;;;;;;17.50;26.87;100198.44;5068636;28;19921;-42
2023/02/18 08:41:08;;;;;;;;;;;;;;;17.76;26.51;100212.41;5069366;28;19917;-43
2023/02/18 08:43:34;;;;;;;;;;;;;;;17.81;26.32;100207.13;5069820;28;20202;-41
2023/02/18 08:45:59;;;;;;;;;;;;;;;17.99;25.99;100203.44;5069668;28;19919;-41
2023/02/18 08:48:25;;;;;;;;;;;;;;;18.43;25.40;100205.53;5085196;28;19921;-42
2023/02/18 08:50:50;;;;;;;;;;;;;;;18.42;25.75;100212.00;5069674;28;20308;-42
2023/02/18 08:53:16;;;;;;;;;;;;;;;18.68;25.33;100205.97;5068758;28;19955;-42
2023/02/18 08:55:41;;;;;;;;;;;;;;;19.42;25.17;100212.97;5069114;28;19966;-42
2023/02/18 08:58:07;;;;;;;;;;;;;;;18.68;24.79;100214.06;5069415;28;19924;-42
2023/02/18 09:00:32;;;;;;;;;;;;;;;18.56;25.39;100222.22;5069616;28;19917;-43
2023/02/18 09:02:57;;;;;;;;;;;;;;;19.12;25.10;100214.19;5069844;28;19920;-42
2023/02/18 09:05:23;;;;;;;;;;;;;;;19.96;23.86;100212.28;5069747;28;19974;-43
2023/02/18 09:07:48;;;;;;;;;;;;;;;20.32;23.91;100209.91;5069732;28;19959;-42
2023/02/18 09:10:13;;;;;;;;;;;;;;;20.36;23.40;100205.63;5069917;28;19969;-41
2023/02/18 09:12:39;;;;;;;;;;;;;;;19.88;24.13;100204.63;5070042;28;19912;-41
2023/02/18 09:15:04;;;;;;;;;;;;;;;20.49;23.54;100201.69;5069973;28;20058;-41
2023/02/18 09:17:30;;;;;;;;;;;;;;;20.80;23.48;100210.06;5069634;28;19912;-41
2023/02/18 09:19:55;;;;;;;;;;;;;;;20.30;23.04;100201.25;5069500;28;19921;-41
2023/02/18 09:22:20;;;;;;;;;;;;;;;20.38;23.78;100189.16;5069383;28;19912;-42
2023/02/18 09:24:46;;;;;;;;;;;;;;;20.22;23.49;100194.44;5069586;28;19913;-42
2023/02/18 09:27:11;;;;;;;;;;;;;;;19.96;23.83;100190.66;5069745;28;19912;-41
2023/02/18 09:29:38;;;;;;;;;;;;;;;19.92;23.83;100195.75;5069374;28;19923;-41
2023/02/18 09:32:04;;;;;;;;;;;;;;;19.75;23.65;100191.53;5069816;28;19913;-41
2023/02/18 09:34:29;;;;;;;;;;;;;;;19.87;23.87;100200.28;5069275;28;19950;-41
2023/02/18 09:36:54;;;;;;;;;;;;;;;20.04;23.54;100192.09;5069591;28;19944;-41
2023/02/18 09:39:20;;;;;;;;;;;;;;;20.37;22.94;100188.34;5069970;28;20006;-41
2023/02/18 09:41:48;;;;;;;;;;;;;;;20.03;23.19;100193.16;5070268;28;20371;-41
2023/02/18 09:44:22;;;;;;;;;;;;;;;20.26;22.94;100203.66;5070074;28;19917;-41
2023/02/18 09:46:52;;;;;;;;;;;;;;;19.91;23.48;100207.66;5071116;28;19918;-41
2023/02/18 09:49:20;;;;;;;;;;;;;;;20.30;22.94;100199.38;5070855;28;19913;-41
2023/02/18 09:51:45;;;;;;;;;;;;;;;20.91;22.54;100203.66;5070767;28;19920;-41
2023/02/18 09:54:13;;;;;;;;;;;;;;;21.34;22.43;100204.41;5070741;28;19924;-41
2023/02/18 09:56:39;;;;;;;;;;;;;;;20.82;22.47;100191.69;5070324;28;19908;-41
2023/02/18 09:59:08;;;;;;;;;;;;;;;20.30;22.71;100185.84;5070013;28;20273;-41
2023/02/18 10:01:36;;;;;;;;;;;;;;;20.17;23.29;100182.75;5070132;28;19919;-41
2023/02/18 10:04:17;;;;;;;;;;;;;;;20.28;22.97;100184.50;5071729;28;19920;-41
2023/02/18 10:06:42;;;;;;;;;;;;;;;20.24;23.38;100167.16;5073495;28;19913;-41
2023/02/18 10:09:18;;;;;;;;;;;;;;;20.26;23.25;100155.00;5089159;28;19912;-41
2023/02/18 10:11:45;;;;;;;;;;;;;;;20.50;22.71;100154.66;5073322;28;20007;-42
2023/02/18 10:14:14;;;;;;;;;;;;;;;20.87;22.80;100148.44;5073348;28;19913;-41
2023/02/18 10:16:40;;;;;;;;;;;;;;;21.61;21.89;100141.19;5073393;28;19912;-41
2023/02/18 10:19:40;;;;;;;;;;;;;;;21.43;21.65;100128.94;5073445;28;19916;-41
2023/02/18 10:22:07;;;;;;;;;;;;;;;21.31;21.49;100123.75;5071045;28;19920;-42
2023/02/18 10:24:43;;;;;;;;;;;;;;;22.01;21.12;100128.81;5072726;28;19924;-41
2023/02/18 10:27:08;;;;;;;;;;;;;;;21.23;21.78;100130.50;5073361;28;20008;-42
2023/02/18 10:29:34;;;;;;;;;;;;;;;21.25;21.38;100130.22;5073486;28;20027;-42
2023/02/18 10:32:02;;;;;;;;;;;;;;;21.63;21.32;100123.59;5073294;28;20399;-40
2023/02/18 10:34:43;;;;;;;;;;;;;;;21.83;21.30;100119.28;5073254;28;19912;-41
2023/02/18 10:37:08;;;;;;;;;;;;;;;21.83;20.81;100117.38;5073051;28;20293;-41
2023/02/18 10:39:33;;;;;;;;;;;;;;;21.52;21.17;100116.53;5072832;28;19927;-41
2023/02/18 10:41:58;;;;;;;;;;;;;;;21.49;21.23;100108.94;5073026;28;20312;-41
2023/02/18 10:44:33;;;;;;;;;;;;;;;22.09;21.01;100103.06;5073234;28;20049;-40
2023/02/18 10:46:58;;;;;;;;;;;;;;;22.21;20.79;100071.88;5073096;28;20076;-40
2023/02/18 10:49:26;;;;;;;;;;;;;;;21.96;20.76;100094.38;5072713;28;19954;-41
2023/02/18 10:51:53;;;;;;;;;;;;;;;21.50;21.14;100082.69;5072822;28;19916;-41
2023/02/18 10:54:22;;;;;;;;;;;;;;;21.17;21.14;100082.84;5072684;28;19913;-42
2023/02/18 10:56:49;;;;;;;;;;;;;;;21.33;20.89;100088.31;5073042;28;19967;-41
2023/02/18 10:59:21;;;;;;;;;;;;;;;21.44;20.50;100084.56;5072844;28;19924;-41
2023/02/18 11:01:53;;;;;;;;;;;;;;;22.44;20.26;100094.09;5072716;28;19913;-41
2023/02/18 11:04:20;;;;;;;;;;;;;;;22.04;20.69;100077.56;5072858;28;20007;-41
2023/02/18 11:06:50;;;;;;;;;;;;;;;22.33;20.42;100081.66;5072323;28;19916;-40
2023/02/18 11:09:38;;;;;;;;;;;;;;;22.87;20.20;100080.97;5072704;28;19941;-41
2023/02/18 11:12:05;;;;;;;;;;;;;;;23.52;19.77;100080.16;5072343;28;19913;-41
2023/02/18 11:14:37;;;;;;;;;;;;;;;23.66;19.66;100072.97;5071955;28;20026;-41
2023/02/18 11:17:16;;;;;;;;;;;;;;;23.53;19.59;100054.59;5071691;28;19913;-41
2023/02/18 11:19:41;;;;;;;;;;;;;;;23.18;19.70;100061.88;5072125;28;19974;-41
2023/02/18 11:22:15;;;;;;;;;;;;;;;23.96;19.22;100063.81;5072168;28;19948;-40
2023/02/18 11:24:47;;;;;;;;;;;;;;;23.13;19.77;100056.47;5071696;28;20336;-41
2023/02/18 11:27:21;;;;;;;;;;;;;;;22.98;20.14;100050.00;5071862;28;20294;-41
2023/02/18 11:29:49;;;;;;;;;;;;;;;22.79;20.46;100038.13;5072158;28;19919;-41
2023/02/18 11:32:14;;;;;;;;;;;;;;;22.98;20.47;100041.88;5071996;28;19985;-42
2023/02/18 11:34:41;;;;;;;;;;;;;;;22.38;20.72;100038.28;5071734;28;19919;-41
2023/02/18 11:37:27;;;;;;;;;;;;;;;22.27;20.98;100042.91;5071859;28;19919;-41
2023/02/18 11:39:54;;;;;;;;;;;;;;;22.23;21.16;100039.88;5071420;28;19927;-41
2023/02/18 11:42:22;;;;;;;;;;;;;;;21.96;21.21;100025.84;5071461;28;19916;-41
2023/02/18 11:44:52;;;;;;;;;;;;;;;21.64;21.51;100025.00;5071745;28;20019;-41
2023/02/18 11:47:20;;;;;;;;;;;;;;;21.52;21.05;100029.09;5070807;28;19919;-41
2023/02/18 11:49:58;;;;;;;;;;;;;;;21.71;21.00;100022.06;5071364;28;19913;-41
2023/02/18 11:52:37;;;;;;;;;;;;;;;21.35;21.25;100023.88;5070958;28;20288;-41
2023/02/18 11:55:05;;;;;;;;;;;;;;;21.18;21.70;100016.81;5071353;28;20034;-41
2023/02/18 11:57:32;;;;;;;;;;;;;;;21.79;20.93;100026.91;5071256;28;19935;-41
2023/02/18 11:59:59;;;;;;;;;;;;;;;21.69;20.74;100013.38;5071095;28;19981;-41
2023/02/18 12:02:32;;;;;;;;;;;;;;;22.22;20.84;100018.50;5071250;28;19913;-41
2023/02/18 12:05:01;;;;;;;;;;;;;;;22.19;20.77;100014.41;5071543;28;20349;-41
2023/02/18 12:07:32;;;;;;;;;;;;;;;21.87;21.10;100012.03;5071581;28;19947;-41
2023/02/18 12:09:59;;;;;;;;;;;;;;;21.58;21.45;100003.63;5071224;28;20264;-42
2023/02/18 12:12:43;;;;;;;;;;;;;;;21.55;21.91;100006.88;5071167;28;19912;-41
2023/02/18 12:15:12;;;;;;;;;;;;;;;22.36;21.01;100003.31;5087572;28;20320;-41
2023/02/18 12:18:15;;;;;;;;;;;;;;;22.60;21.28;99995.38;5072102;28;20391;-41
2023/02/18 12:21:03;;;;;;;;;;;;;;;22.89;20.99;99986.56;5068615;28;19916;-41
2023/02/18 12:23:28;;;;;;;;;;;;;;;23.58;20.28;99984.75;5071103;28;19924;-42
2023/02/18 12:25:59;;;;;;;;;;;;;;;22.72;21.05;99980.69;5071373;28;19955;-41
2023/02/18 12:28:30;;;;;;;;;;;;;;;22.60;21.35;99962.03;5071580;28;19942;-41
2023/02/18 12:30:59;;;;;;;;;;;;;;;22.84;21.38;99976.53;5071546;28;19918;-41
2023/02/18 12:33:53;;;;;;;;;;;;;;;23.56;21.08;99962.50;5071379;28;19912;-39
2023/02/18 12:36:30;;;;;;;;;;;;;;;23.04;21.44;99969.41;5070337;28;19913;-41
2023/02/18 12:38:58;;;;;;;;;;;;;;;23.77;21.02;99971.28;5070991;28;19967;-41
2023/02/18 12:41:42;;;;;;;;;;;;;;;23.71;20.83;99974.34;5071206;28;19923;-42
2023/02/18 12:44:25;;;;;;;;;;;;;;;24.24;20.48;99965.41;5071004;28;19948;-41